sensor_id;sensor_type;location;lat;lon;timestamp;pressure;altitude;pressure_sealevel;temperature;humidity
15308;BME280;7755;52.208;6.964;2022-09-09T00:00:21;100404.28;;;16.65;100.00
15308;BME280;7755;52.208;6.964;2022-09-09T00:04:26;100393.38;;;16.60;100.00
15308;BME280;7755;52.208;6.964;2022-09-09T00:08:38;100389.59;;;16.51;100.00
15308;BME280;7755;52.208;6.964;2022-09-09T00:12:50;100399.78;;;16.45;100.00
15308;BME280;7755;52.208;6.964;2022-09-09T00:17:01;100387.94;;;16.50;100.00
15308;BME280;7755;52.208;6.964;2022-09-09T00:21:06;100393.22;;;16.46;100.00
15308;BME280;7755;52.208;6.964;2022-09-09T00:25:11;100391.63;;;16.40;100.00
15308;BME280;7755;52.208;6.964;2022-09-09T00:29:21;100387.16;;;16.44;100.00
15308;BME280;7755;52.208;6.964;2022-09-09T00:33:30;100394.84;;;16.47;100.00
15308;BME280;7755;52.208;6.964;2022-09-09T00:37:33;100387.47;;;16.43;100.00
15308;BME280;7755;52.208;6.964;2022-09-09T00:41:46;100388.28;;;16.43;100.00
15308;BME280;7755;52.208;6.964;2022-09-09T00:46:23;100382.00;;;16.37;100.00
15308;BME280;7755;52.208;6.964;2022-09-09T00:50:44;100375.47;;;16.33;100.00
15308;BME280;7755;52.208;6.964;2022-09-09T00:54:55;100374.59;;;16.38;100.00
15308;BME280;7755;52.208;6.964;2022-09-09T00:59:19;100373.16;;;16.46;100.00
15308;BME280;7755;52.208;6.964;2022-09-09T01:03:34;100373.94;;;16.51;100.00
15308;BME280;7755;52.208;6.964;2022-09-09T01:07:38;100367.94;;;16.49;100.00
15308;BME280;7755;52.208;6.964;2022-09-09T01:11:52;100372.91;;;16.47;100.00
15308;BME280;7755;52.208;6.964;2022-09-09T01:16:00;100377.00;;;16.45;100.00
15308;BME280;7755;52.208;6.964;2022-09-09T01:20:10;100366.38;;;16.38;100.00
15308;BME280;7755;52.208;6.964;2022-09-09T01:24:27;100360.47;;;16.26;100.00
15308;BME280;7755;52.208;6.964;2022-09-09T01:28:54;100360.72;;;16.24;100.00
15308;BME280;7755;52.208;6.964;2022-09-09T01:33:04;100362.41;;;16.20;100.00
15308;BME280;7755;52.208;6.964;2022-09-09T01:37:08;100367.13;;;16.15;100.00
15308;BME280;7755;52.208;6.964;2022-09-09T01:41:13;100364.69;;;16.08;100.00
15308;BME280;7755;52.208;6.964;2022-09-09T01:45:24;100364.22;;;15.96;100.00
15308;BME280;7755;52.208;6.964;2022-09-09T01:49:26;100363.50;;;15.85;100.00
15308;BME280;7755;52.208;6.964;2022-09-09T01:53:29;100364.94;;;15.72;100.00
15308;BME280;7755;52.208;6.964;2022-09-09T01:57:33;100375.63;;;15.69;100.00
15308;BME280;7755;52.208;6.964;2022-09-09T02:01:49;100373.47;;;15.66;100.00
15308;BME280;7755;52.208;6.964;2022-09-09T02:06:00;100374.28;;;15.61;100.00
15308;BME280;7755;52.208;6.964;2022-09-09T02:10:10;100376.19;;;15.61;100.00
15308;BME280;7755;52.208;6.964;2022-09-09T02:14:22;100374.84;;;15.58;100.00
15308;BME280;7755;52.208;6.964;2022-09-09T02:18:31;100377.91;;;15.51;100.00
15308;BME280;7755;52.208;6.964;2022-09-09T02:22:38;100372.16;;;15.48;100.00
15308;BME280;7755;52.208;6.964;2022-09-09T02:26:42;100375.19;;;15.41;100.00
15308;BME280;7755;52.208;6.964;2022-09-09T02:30:50;100370.81;;;15.45;100.00
15308;BME280;7755;52.208;6.964;2022-09-09T02:35:05;100380.06;;;15.49;100.00
15308;BME280;7755;52.208;6.964;2022-09-09T02:39:10;100372.16;;;15.43;100.00
15308;BME280;7755;52.208;6.964;2022-09-09T02:43:14;100374.94;;;15.38;100.00
15308;BME280;7755;52.208;6.964;2022-09-09T02:47:25;100377.13;;;15.36;100.00
15308;BME280;7755;52.208;6.964;2022-09-09T02:51:38;100370.00;;;15.35;100.00
15308;BME280;7755;52.208;6.964;2022-09-09T02:55:47;100374.16;;;15.32;100.00
15308;BME280;7755;52.208;6.964;2022-09-09T02:59:50;100378.25;;;15.29;100.00
15308;BME280;7755;52.208;6.964;2022-09-09T03:03:53;100384.53;;;15.30;100.00
15308;BME280;7755;52.208;6.964;2022-09-09T03:07:56;100386.75;;;15.28;100.00
15308;BME280;7755;52.208;6.964;2022-09-09T03:11:58;100394.97;;;15.23;100.00
15308;BME280;7755;52.208;6.964;2022-09-09T03:16:02;100388.72;;;15.17;100.00
15308;BME280;7755;52.208;6.964;2022-09-09T03:20:09;100382.38;;;15.17;100.00
15308;BME280;7755;52.208;6.964;2022-09-09T03:24:14;100379.13;;;15.20;100.00
15308;BME280;7755;52.208;6.964;2022-09-09T03:28:15;100381.31;;;15.18;100.00
15308;BME280;7755;52.208;6.964;2022-09-09T03:32:17;100378.59;;;15.18;100.00
15308;BME280;7755;52.208;6.964;2022-09-09T03:36:38;100378.84;;;15.16;100.00
15308;BME280;7755;52.208;6.964;2022-09-09T03:41:01;100379.69;;;15.12;100.00
15308;BME280;7755;52.208;6.964;2022-09-09T03:45:05;100376.38;;;15.10;100.00
15308;BME280;7755;52.208;6.964;2022-09-09T03:49:08;100373.94;;;15.08;100.00
15308;BME280;7755;52.208;6.964;2022-09-09T03:53:10;100376.16;;;15.01;100.00
15308;BME280;7755;52.208;6.964;2022-09-09T03:57:14;100365.22;;;14.96;100.00
15308;BME280;7755;52.208;6.964;2022-09-09T04:01:17;100369.31;;;14.93;100.00
15308;BME280;7755;52.208;6.964;2022-09-09T04:05:19;100367.41;;;14.94;100.00
15308;BME280;7755;52.208;6.964;2022-09-09T04:09:22;100369.03;;;14.95;100.00
15308;BME280;7755;52.208;6.964;2022-09-09T04:13:27;100363.56;;;14.95;100.00
15308;BME280;7755;52.208;6.964;2022-09-09T04:17:31;100365.78;;;14.93;100.00
15308;BME280;7755;52.208;6.964;2022-09-09T04:21:33;100363.31;;;14.91;100.00
15308;BME280;7755;52.208;6.964;2022-09-09T04:25:36;100369.63;;;14.92;100.00
15308;BME280;7755;52.208;6.964;2022-09-09T04:29:40;100370.16;;;14.89;100.00
15308;BME280;7755;52.208;6.964;2022-09-09T04:33:43;100371.53;;;14.86;100.00
15308;BME280;7755;52.208;6.964;2022-09-09T04:37:45;100368.81;;;14.86;100.00
15308;BME280;7755;52.208;6.964;2022-09-09T04:41:47;100366.34;;;14.85;100.00
15308;BME280;7755;52.208;6.964;2022-09-09T04:45:51;100373.75;;;14.84;100.00
15308;BME280;7755;52.208;6.964;2022-09-09T04:49:55;100372.94;;;14.84;100.00
15308;BME280;7755;52.208;6.964;2022-09-09T04:53:57;100358.38;;;14.83;100.00
15308;BME280;7755;52.208;6.964;2022-09-09T04:58:03;100364.69;;;14.89;100.00
15308;BME280;7755;52.208;6.964;2022-09-09T05:02:07;100367.13;;;14.95;100.00
15308;BME280;7755;52.208;6.964;2022-09-09T05:06:10;100376.97;;;14.96;100.00
15308;BME280;7755;52.208;6.964;2022-09-09T05:10:12;100376.72;;;14.88;100.00
15308;BME280;7755;52.208;6.964;2022-09-09T05:14:16;100368.50;;;14.93;100.00
15308;BME280;7755;52.208;6.964;2022-09-09T05:18:19;100375.91;;;14.97;100.00
15308;BME280;7755;52.208;6.964;2022-09-09T05:22:23;100369.84;;;15.00;100.00
15308;BME280;7755;52.208;6.964;2022-09-09T05:26:26;100379.97;;;15.05;100.00
15308;BME280;7755;52.208;6.964;2022-09-09T05:30:30;100359.72;;;15.11;100.00
15308;BME280;7755;52.208;6.964;2022-09-09T05:34:36;100359.94;;;15.15;100.00
15308;BME280;7755;52.208;6.964;2022-09-09T05:38:40;100362.97;;;15.18;100.00
15308;BME280;7755;52.208;6.964;2022-09-09T05:42:43;100366.75;;;15.27;100.00
15308;BME280;7755;52.208;6.964;2022-09-09T05:46:45;100372.75;;;15.35;100.00
15308;BME280;7755;52.208;6.964;2022-09-09T05:50:53;100374.09;;;15.42;100.00
15308;BME280;7755;52.208;6.964;2022-09-09T05:54:56;100373.78;;;15.49;100.00
15308;BME280;7755;52.208;6.964;2022-09-09T05:58:58;100369.38;;;15.58;100.00
15308;BME280;7755;52.208;6.964;2022-09-09T06:03:01;100366.91;;;15.62;100.00
15308;BME280;7755;52.208;6.964;2022-09-09T06:07:05;100369.91;;;15.65;100.00
15308;BME280;7755;52.208;6.964;2022-09-09T06:11:12;100367.91;;;15.76;100.00
15308;BME280;7755;52.208;6.964;2022-09-09T06:15:15;100369.22;;;15.83;100.00
15308;BME280;7755;52.208;6.964;2022-09-09T06:19:17;100368.09;;;15.90;100.00
15308;BME280;7755;52.208;6.964;2022-09-09T06:23:22;100365.56;;;15.98;100.00
15308;BME280;7755;52.208;6.964;2022-09-09T06:27:27;100373.78;;;16.03;100.00
15308;BME280;7755;52.208;6.964;2022-09-09T06:31:29;100378.94;;;16.10;100.00
15308;BME280;7755;52.208;6.964;2022-09-09T06:35:36;100377.28;;;16.14;100.00
15308;BME280;7755;52.208;6.964;2022-09-09T06:39:39;100371.47;;;16.21;100.00
15308;BME280;7755;52.208;6.964;2022-09-09T06:43:42;100368.91;;;16.29;100.00
15308;BME280;7755;52.208;6.964;2022-09-09T06:47:46;100367.47;;;16.37;100.00
15308;BME280;7755;52.208;6.964;2022-09-09T06:51:49;100372.59;;;16.49;100.00
15308;BME280;7755;52.208;6.964;2022-09-09T06:55:54;100383.22;;;16.60;100.00
15308;BME280;7755;52.208;6.964;2022-09-09T06:59:56;100372.97;;;16.66;100.00
15308;BME280;7755;52.208;6.964;2022-09-09T07:04:00;100377.88;;;16.74;100.00
15308;BME280;7755;52.208;6.964;2022-09-09T07:08:03;100370.66;;;16.83;100.00
15308;BME280;7755;52.208;6.964;2022-09-09T07:12:06;100381.53;;;16.94;100.00
15308;BME280;7755;52.208;6.964;2022-09-09T07:16:12;100384.50;;;16.97;100.00
15308;BME280;7755;52.208;6.964;2022-09-09T07:20:15;100374.47;;;17.11;100.00
15308;BME280;7755;52.208;6.964;2022-09-09T07:24:17;100378.13;;;17.26;100.00
15308;BME280;7755;52.208;6.964;2022-09-09T07:28:22;100370.09;;;17.34;100.00
15308;BME280;7755;52.208;6.964;2022-09-09T07:32:24;100374.03;;;17.47;100.00
15308;BME280;7755;52.208;6.964;2022-09-09T07:36:29;100371.28;;;17.71;100.00
15308;BME280;7755;52.208;6.964;2022-09-09T07:40:32;100376.84;;;17.85;100.00
15308;BME280;7755;52.208;6.964;2022-09-09T07:44:37;100384.66;;;17.96;100.00
15308;BME280;7755;52.208;6.964;2022-09-09T07:48:45;100390.31;;;18.05;100.00
15308;BME280;7755;52.208;6.964;2022-09-09T07:52:48;100388.00;;;18.12;100.00
15308;BME280;7755;52.208;6.964;2022-09-09T07:56:51;100391.38;;;18.09;100.00
15308;BME280;7755;52.208;6.964;2022-09-09T08:00:56;100390.44;;;18.33;100.00
15308;BME280;7755;52.208;6.964;2022-09-09T08:04:58;100386.22;;;18.54;100.00
15308;BME280;7755;52.208;6.964;2022-09-09T08:09:00;100398.34;;;18.72;100.00
15308;BME280;7755;52.208;6.964;2022-09-09T08:13:03;100381.34;;;18.97;100.00
15308;BME280;7755;52.208;6.964;2022-09-09T08:17:07;100393.41;;;19.29;100.00
15308;BME280;7755;52.208;6.964;2022-09-09T08:21:11;100387.16;;;19.51;100.00
15308;BME280;7755;52.208;6.964;2022-09-09T08:25:13;100389.31;;;19.54;100.00
15308;BME280;7755;52.208;6.964;2022-09-09T08:29:16;100383.81;;;19.40;100.00
15308;BME280;7755;52.208;6.964;2022-09-09T08:33:20;100401.34;;;19.30;100.00
15308;BME280;7755;52.208;6.964;2022-09-09T08:37:23;100397.91;;;19.39;100.00
15308;BME280;7755;52.208;6.964;2022-09-09T08:41:37;100404.97;;;19.31;100.00
15308;BME280;7755;52.208;6.964;2022-09-09T08:45:50;100410.06;;;19.38;100.00
15308;BME280;7755;52.208;6.964;2022-09-09T08:50:08;100404.34;;;19.61;100.00
15308;BME280;7755;52.208;6.964;2022-09-09T08:54:15;100410.53;;;19.95;95.91
15308;BME280;7755;52.208;6.964;2022-09-09T08:58:20;100406.88;;;19.85;96.00
15308;BME280;7755;52.208;6.964;2022-09-09T09:02:32;100404.72;;;19.82;94.18
15308;BME280;7755;52.208;6.964;2022-09-09T09:06:46;100409.63;;;19.85;95.20
15308;BME280;7755;52.208;6.964;2022-09-09T09:10:54;100413.22;;;19.86;92.71
15308;BME280;7755;52.208;6.964;2022-09-09T09:15:00;100416.56;;;19.83;91.33
15308;BME280;7755;52.208;6.964;2022-09-09T09:19:02;100421.81;;;20.21;87.91
15308;BME280;7755;52.208;6.964;2022-09-09T09:23:15;100404.63;;;20.68;86.12
15308;BME280;7755;52.208;6.964;2022-09-09T09:27:28;100394.81;;;21.16;83.69
15308;BME280;7755;52.208;6.964;2022-09-09T09:31:32;100400.28;;;21.47;79.89
15308;BME280;7755;52.208;6.964;2022-09-09T09:35:34;100403.31;;;21.85;77.90
15308;BME280;7755;52.208;6.964;2022-09-09T09:39:37;100410.50;;;21.95;76.01
15308;BME280;7755;52.208;6.964;2022-09-09T09:43:40;100408.09;;;22.02;72.58
15308;BME280;7755;52.208;6.964;2022-09-09T09:47:57;100418.16;;;21.98;72.92
15308;BME280;7755;52.208;6.964;2022-09-09T09:52:00;100410.00;;;21.75;74.29
15308;BME280;7755;52.208;6.964;2022-09-09T09:56:08;100412.28;;;21.82;74.63
15308;BME280;7755;52.208;6.964;2022-09-09T10:00:13;100409.91;;;22.15;73.60
15308;BME280;7755;52.208;6.964;2022-09-09T10:04:21;100418.84;;;22.47;71.60
15308;BME280;7755;52.208;6.964;2022-09-09T10:08:27;100408.19;;;22.75;68.61
15308;BME280;7755;52.208;6.964;2022-09-09T10:12:39;100406.75;;;22.77;70.10
15308;BME280;7755;52.208;6.964;2022-09-09T10:16:56;100413.66;;;23.09;70.88
15308;BME280;7755;52.208;6.964;2022-09-09T10:21:13;100400.09;;;23.25;68.13
15308;BME280;7755;52.208;6.964;2022-09-09T10:25:30;100409.66;;;22.98;68.96
15308;BME280;7755;52.208;6.964;2022-09-09T10:29:47;100416.22;;;22.76;68.55
15308;BME280;7755;52.208;6.964;2022-09-09T10:33:59;100421.16;;;22.36;69.47
15308;BME280;7755;52.208;6.964;2022-09-09T10:38:12;100412.84;;;22.36;71.56
15308;BME280;7755;52.208;6.964;2022-09-09T10:42:16;100403.56;;;22.23;68.91
15308;BME280;7755;52.208;6.964;2022-09-09T10:46:28;100400.59;;;22.02;68.70
15308;BME280;7755;52.208;6.964;2022-09-09T10:50:42;100400.94;;;22.18;69.00
15308;BME280;7755;52.208;6.964;2022-09-09T10:54:54;100396.53;;;22.34;69.58
15308;BME280;7755;52.208;6.964;2022-09-09T10:59:00;100390.13;;;22.60;68.74
15308;BME280;7755;52.208;6.964;2022-09-09T11:03:05;100403.50;;;22.67;64.67
15308;BME280;7755;52.208;6.964;2022-09-09T11:07:13;100390.41;;;22.84;65.92
15308;BME280;7755;52.208;6.964;2022-09-09T11:11:22;100390.41;;;22.84;64.29
15308;BME280;7755;52.208;6.964;2022-09-09T11:15:31;100390.06;;;22.95;64.10
15308;BME280;7755;52.208;6.964;2022-09-09T11:19:39;100387.97;;;22.92;62.76
15308;BME280;7755;52.208;6.964;2022-09-09T11:23:45;100387.28;;;23.03;62.11
15308;BME280;7755;52.208;6.964;2022-09-09T11:28:00;100391.41;;;22.97;62.25
15308;BME280;7755;52.208;6.964;2022-09-09T11:32:17;100398.69;;;23.02;62.93
15308;BME280;7755;52.208;6.964;2022-09-09T11:36:47;100392.34;;;23.01;61.89
15308;BME280;7755;52.208;6.964;2022-09-09T11:40:55;100398.06;;;22.96;62.56
15308;BME280;7755;52.208;6.964;2022-09-09T11:45:09;100391.88;;;22.82;63.13
15308;BME280;7755;52.208;6.964;2022-09-09T11:49:28;100383.66;;;22.56;62.80
15308;BME280;7755;52.208;6.964;2022-09-09T11:53:34;100393.09;;;22.46;64.70
15308;BME280;7755;52.208;6.964;2022-09-09T11:57:38;100396.50;;;22.60;65.63
15308;BME280;7755;52.208;6.964;2022-09-09T12:01:42;100388.22;;;22.52;63.61
15308;BME280;7755;52.208;6.964;2022-09-09T12:05:45;100388.38;;;22.38;63.76
15308;BME280;7755;52.208;6.964;2022-09-09T12:09:51;100394.91;;;22.16;64.88
15308;BME280;7755;52.208;6.964;2022-09-09T12:13:58;100392.72;;;21.87;66.50
15308;BME280;7755;52.208;6.964;2022-09-09T12:18:01;100404.59;;;21.70;68.99
15308;BME280;7755;52.208;6.964;2022-09-09T12:22:06;100403.25;;;21.59;69.67
15308;BME280;7755;52.208;6.964;2022-09-09T12:26:27;100400.81;;;21.58;70.91
15308;BME280;7755;52.208;6.964;2022-09-09T12:30:35;100400.38;;;21.73;70.00
15308;BME280;7755;52.208;6.964;2022-09-09T12:34:41;100394.03;;;21.81;69.95
15308;BME280;7755;52.208;6.964;2022-09-09T12:38:45;100394.53;;;21.74;68.98
15308;BME280;7755;52.208;6.964;2022-09-09T12:42:49;100400.50;;;21.59;68.51
15308;BME280;7755;52.208;6.964;2022-09-09T12:46:52;100389.56;;;21.45;70.78
15308;BME280;7755;52.208;6.964;2022-09-09T12:50:54;100395.56;;;21.39;70.49
15308;BME280;7755;52.208;6.964;2022-09-09T12:54:58;100395.28;;;21.49;72.14
15308;BME280;7755;52.208;6.964;2022-09-09T12:59:03;100386.53;;;21.64;70.83
15308;BME280;7755;52.208;6.964;2022-09-09T13:03:16;100389.44;;;21.59;70.76
15308;BME280;7755;52.208;6.964;2022-09-09T13:07:19;100401.63;;;21.49;70.35
15308;BME280;7755;52.208;6.964;2022-09-09T13:11:26;100439.78;;;21.30;72.50
15308;BME280;7755;52.208;6.964;2022-09-09T13:15:32;100431.06;;;20.25;90.55
15308;BME280;7755;52.208;6.964;2022-09-09T13:19:35;100416.91;;;19.68;96.05
15308;BME280;7755;52.208;6.964;2022-09-09T13:23:38;100415.44;;;19.56;99.51
15308;BME280;7755;52.208;6.964;2022-09-09T13:27:41;100409.94;;;19.56;100.00
15308;BME280;7755;52.208;6.964;2022-09-09T13:31:45;100413.91;;;19.50;100.00
15308;BME280;7755;52.208;6.964;2022-09-09T13:35:49;100401.16;;;19.54;100.00
15308;BME280;7755;52.208;6.964;2022-09-09T13:39:53;100392.56;;;19.70;100.00
15308;BME280;7755;52.208;6.964;2022-09-09T13:43:55;100373.25;;;19.83;100.00
15308;BME280;7755;52.208;6.964;2022-09-09T13:48:08;100384.75;;;19.99;100.00
15308;BME280;7755;52.208;6.964;2022-09-09T13:52:12;100386.94;;;19.88;100.00
15308;BME280;7755;52.208;6.964;2022-09-09T13:56:15;100394.28;;;19.93;100.00
15308;BME280;7755;52.208;6.964;2022-09-09T14:00:18;100402.41;;;20.12;100.00
15308;BME280;7755;52.208;6.964;2022-09-09T14:04:22;100391.38;;;20.12;98.03
15308;BME280;7755;52.208;6.964;2022-09-09T14:08:25;100389.50;;;20.21;100.00
15308;BME280;7755;52.208;6.964;2022-09-09T14:12:28;100402.72;;;20.47;99.23
15308;BME280;7755;52.208;6.964;2022-09-09T14:16:30;100399.22;;;20.41;96.64
15308;BME280;7755;52.208;6.964;2022-09-09T14:20:33;100405.41;;;20.24;98.31
15308;BME280;7755;52.208;6.964;2022-09-09T14:24:35;100402.78;;;20.19;98.72
15308;BME280;7755;52.208;6.964;2022-09-09T14:28:37;100395.72;;;20.27;98.12
15308;BME280;7755;52.208;6.964;2022-09-09T14:32:40;100403.84;;;20.32;98.01
15308;BME280;7755;52.208;6.964;2022-09-09T14:36:43;100397.03;;;20.52;95.81
15308;BME280;7755;52.208;6.964;2022-09-09T14:40:47;100398.91;;;20.42;94.89
15308;BME280;7755;52.208;6.964;2022-09-09T14:44:49;100393.28;;;20.48;94.57
15308;BME280;7755;52.208;6.964;2022-09-09T14:48:50;100391.72;;;20.55;95.53
15308;BME280;7755;52.208;6.964;2022-09-09T14:52:54;100397.56;;;20.54;95.85
15308;BME280;7755;52.208;6.964;2022-09-09T14:56:56;100387.13;;;20.51;94.85
15308;BME280;7755;52.208;6.964;2022-09-09T15:01:02;100387.66;;;20.53;93.99
15308;BME280;7755;52.208;6.964;2022-09-09T15:05:05;100384.38;;;20.51;95.12
15308;BME280;7755;52.208;6.964;2022-09-09T15:09:08;100377.63;;;20.43;94.62
15308;BME280;7755;52.208;6.964;2022-09-09T15:13:10;100375.94;;;20.33;95.33
15308;BME280;7755;52.208;6.964;2022-09-09T15:17:12;100373.69;;;20.35;95.96
15308;BME280;7755;52.208;6.964;2022-09-09T15:21:16;100372.97;;;20.30;95.79
15308;BME280;7755;52.208;6.964;2022-09-09T15:25:20;100368.19;;;20.44;94.84
15308;BME280;7755;52.208;6.964;2022-09-09T15:29:22;100368.31;;;20.53;93.85
15308;BME280;7755;52.208;6.964;2022-09-09T15:33:24;100364.25;;;20.59;93.27
15308;BME280;7755;52.208;6.964;2022-09-09T15:37:25;100353.16;;;20.50;91.87
15308;BME280;7755;52.208;6.964;2022-09-09T15:41:29;100351.34;;;20.45;92.11
15308;BME280;7755;52.208;6.964;2022-09-09T15:45:31;100351.59;;;20.35;91.78
15308;BME280;7755;52.208;6.964;2022-09-09T15:49:33;100347.63;;;20.28;92.54
15308;BME280;7755;52.208;6.964;2022-09-09T15:53:35;100349.91;;;20.26;93.34
15308;BME280;7755;52.208;6.964;2022-09-09T15:57:40;100345.13;;;20.17;93.86
15308;BME280;7755;52.208;6.964;2022-09-09T16:01:42;100349.88;;;20.03;94.27
15308;BME280;7755;52.208;6.964;2022-09-09T16:05:44;100356.22;;;20.04;94.54
15308;BME280;7755;52.208;6.964;2022-09-09T16:09:46;100347.88;;;19.95;93.70
15308;BME280;7755;52.208;6.964;2022-09-09T16:13:50;100352.56;;;19.95;94.20
15308;BME280;7755;52.208;6.964;2022-09-09T16:17:53;100358.91;;;19.95;95.02
15308;BME280;7755;52.208;6.964;2022-09-09T16:21:55;100354.41;;;19.99;96.41
15308;BME280;7755;52.208;6.964;2022-09-09T16:25:57;100362.16;;;19.97;96.72
15308;BME280;7755;52.208;6.964;2022-09-09T16:30:00;100364.31;;;20.00;98.18
15308;BME280;7755;52.208;6.964;2022-09-09T16:34:02;100355.75;;;19.88;100.00
15308;BME280;7755;52.208;6.964;2022-09-09T16:38:04;100357.28;;;19.58;100.00
15308;BME280;7755;52.208;6.964;2022-09-09T16:42:07;100354.91;;;19.51;100.00
15308;BME280;7755;52.208;6.964;2022-09-09T16:46:13;100363.47;;;19.36;100.00
15308;BME280;7755;52.208;6.964;2022-09-09T16:50:16;100389.41;;;19.21;100.00
15308;BME280;7755;52.208;6.964;2022-09-09T16:54:18;100381.63;;;18.96;100.00
15308;BME280;7755;52.208;6.964;2022-09-09T16:58:20;100394.69;;;18.76;100.00
15308;BME280;7755;52.208;6.964;2022-09-09T17:02:23;100401.91;;;18.72;100.00
15308;BME280;7755;52.208;6.964;2022-09-09T17:06:25;100406.31;;;18.54;100.00
15308;BME280;7755;52.208;6.964;2022-09-09T17:10:27;100402.38;;;18.42;100.00
15308;BME280;7755;52.208;6.964;2022-09-09T17:14:29;100396.81;;;18.28;100.00
15308;BME280;7755;52.208;6.964;2022-09-09T17:18:33;100391.50;;;18.18;100.00
15308;BME280;7755;52.208;6.964;2022-09-09T17:22:35;100395.13;;;18.13;100.00
15308;BME280;7755;52.208;6.964;2022-09-09T17:26:37;100396.03;;;18.09;100.00
15308;BME280;7755;52.208;6.964;2022-09-09T17:30:40;100403.94;;;17.96;100.00
15308;BME280;7755;52.208;6.964;2022-09-09T17:34:43;100395.22;;;17.89;100.00
15308;BME280;7755;52.208;6.964;2022-09-09T17:38:46;100414.25;;;17.86;100.00
15308;BME280;7755;52.208;6.964;2022-09-09T17:42:48;100415.72;;;17.78;100.00
15308;BME280;7755;52.208;6.964;2022-09-09T17:46:50;100418.22;;;17.74;100.00
15308;BME280;7755;52.208;6.964;2022-09-09T17:50:58;100413.91;;;17.68;100.00
15308;BME280;7755;52.208;6.964;2022-09-09T17:55:00;100414.19;;;17.67;100.00
15308;BME280;7755;52.208;6.964;2022-09-09T17:59:03;100418.03;;;17.66;100.00
15308;BME280;7755;52.208;6.964;2022-09-09T18:03:06;100423.91;;;17.59;100.00
15308;BME280;7755;52.208;6.964;2022-09-09T18:07:10;100418.00;;;17.47;100.00
15308;BME280;7755;52.208;6.964;2022-09-09T18:11:13;100426.50;;;17.51;100.00
15308;BME280;7755;52.208;6.964;2022-09-09T18:15:15;100426.94;;;17.58;100.00
15308;BME280;7755;52.208;6.964;2022-09-09T18:19:19;100440.94;;;17.61;100.00
15308;BME280;7755;52.208;6.964;2022-09-09T18:23:23;100447.25;;;17.62;100.00
15308;BME280;7755;52.208;6.964;2022-09-09T18:27:25;100456.03;;;17.64;100.00
15308;BME280;7755;52.208;6.964;2022-09-09T18:31:28;100455.50;;;17.62;100.00
15308;BME280;7755;52.208;6.964;2022-09-09T18:35:30;100467.03;;;17.64;100.00
15308;BME280;7755;52.208;6.964;2022-09-09T18:39:33;100471.47;;;17.60;100.00
15308;BME280;7755;52.208;6.964;2022-09-09T18:43:35;100468.66;;;17.41;100.00
15308;BME280;7755;52.208;6.964;2022-09-09T18:47:36;100468.16;;;17.34;100.00
15308;BME280;7755;52.208;6.964;2022-09-09T18:51:40;100466.78;;;17.36;100.00
15308;BME280;7755;52.208;6.964;2022-09-09T18:55:43;100480.28;;;17.33;100.00
15308;BME280;7755;52.208;6.964;2022-09-09T18:59:45;100477.34;;;17.24;100.00
15308;BME280;7755;52.208;6.964;2022-09-09T19:03:48;100480.25;;;17.09;100.00
15308;BME280;7755;52.208;6.964;2022-09-09T19:07:50;100485.28;;;17.02;100.00
15308;BME280;7755;52.208;6.964;2022-09-09T19:11:53;100483.38;;;16.97;100.00
15308;BME280;7755;52.208;6.964;2022-09-09T19:15:55;100480.16;;;16.90;100.00
15308;BME280;7755;52.208;6.964;2022-09-09T19:19:57;100482.31;;;16.93;100.00
15308;BME280;7755;52.208;6.964;2022-09-09T19:24:01;100477.34;;;17.00;100.00
15308;BME280;7755;52.208;6.964;2022-09-09T19:28:06;100475.63;;;17.04;100.00
15308;BME280;7755;52.208;6.964;2022-09-09T19:32:07;100489.31;;;17.09;100.00
15308;BME280;7755;52.208;6.964;2022-09-09T19:36:11;100485.47;;;17.10;100.00
15308;BME280;7755;52.208;6.964;2022-09-09T19:40:13;100487.91;;;17.12;100.00
15308;BME280;7755;52.208;6.964;2022-09-09T19:44:16;100489.84;;;17.11;100.00
15308;BME280;7755;52.208;6.964;2022-09-09T19:48:18;100483.53;;;17.11;100.00
15308;BME280;7755;52.208;6.964;2022-09-09T19:52:20;100491.22;;;17.14;100.00
15308;BME280;7755;52.208;6.964;2022-09-09T19:56:24;100494.50;;;17.11;100.00
15308;BME280;7755;52.208;6.964;2022-09-09T20:00:27;100491.81;;;17.06;100.00
15308;BME280;7755;52.208;6.964;2022-09-09T20:04:29;100507.53;;;17.00;100.00
15308;BME280;7755;52.208;6.964;2022-09-09T20:08:31;100502.41;;;16.88;100.00
15308;BME280;7755;52.208;6.964;2022-09-09T20:12:33;100508.47;;;16.85;100.00
15308;BME280;7755;52.208;6.964;2022-09-09T20:16:36;100509.88;;;16.83;100.00
15308;BME280;7755;52.208;6.964;2022-09-09T20:20:39;100510.72;;;16.78;100.00
15308;BME280;7755;52.208;6.964;2022-09-09T20:24:42;100508.84;;;16.74;100.00
15308;BME280;7755;52.208;6.964;2022-09-09T20:28:44;100516.28;;;16.68;100.00
15308;BME280;7755;52.208;6.964;2022-09-09T20:32:47;100510.31;;;16.56;100.00
15308;BME280;7755;52.208;6.964;2022-09-09T20:36:49;100514.78;;;16.47;100.00
15308;BME280;7755;52.208;6.964;2022-09-09T20:40:52;100518.06;;;16.44;100.00
15308;BME280;7755;52.208;6.964;2022-09-09T20:44:54;100522.72;;;16.48;100.00
15308;BME280;7755;52.208;6.964;2022-09-09T20:48:58;100526.28;;;16.49;100.00
15308;BME280;7755;52.208;6.964;2022-09-09T20:53:00;100522.50;;;16.40;100.00
15308;BME280;7755;52.208;6.964;2022-09-09T20:57:02;100518.69;;;16.35;100.00
15308;BME280;7755;52.208;6.964;2022-09-09T21:01:06;100516.78;;;16.31;100.00
15308;BME280;7755;52.208;6.964;2022-09-09T21:05:09;100512.69;;;16.28;100.00
15308;BME280;7755;52.208;6.964;2022-09-09T21:09:12;100513.78;;;16.27;100.00
15308;BME280;7755;52.208;6.964;2022-09-09T21:13:14;100509.66;;;16.30;100.00
15308;BME280;7755;52.208;6.964;2022-09-09T21:17:16;100512.41;;;16.30;100.00
15308;BME280;7755;52.208;6.964;2022-09-09T21:21:20;100509.13;;;16.28;100.00
15308;BME280;7755;52.208;6.964;2022-09-09T21:25:22;100514.34;;;16.24;100.00